sensor_id;sensor_type;location;lat;lon;timestamp;P1;durP1;ratioP1;P2;durP2;ratioP2
17214;SDS011;8723;51.502;6.918;2023-08-12T00:01:04;13.13;;;11.70;;
17214;SDS011;8723;51.502;6.918;2023-08-12T00:03:31;14.10;;;12.27;;
17214;SDS011;8723;51.502;6.918;2023-08-12T00:05:58;14.00;;;12.13;;
17214;SDS011;8723;51.502;6.918;2023-08-12T00:08:26;14.63;;;12.75;;
17214;SDS011;8723;51.502;6.918;2023-08-12T00:10:54;15.23;;;13.73;;
17214;SDS011;8723;51.502;6.918;2023-08-12T00:13:20;15.97;;;14.27;;
17214;SDS011;8723;51.502;6.918;2023-08-12T00:15:49;15.88;;;14.27;;
17214;SDS011;8723;51.502;6.918;2023-08-12T00:18:16;15.93;;;14.32;;
17214;SDS011;8723;51.502;6.918;2023-08-12T00:20:42;16.63;;;14.82;;
17214;SDS011;8723;51.502;6.918;2023-08-12T00:23:09;17.17;;;15.18;;
17214;SDS011;8723;51.502;6.918;2023-08-12T00:25:36;17.90;;;15.80;;
17214;SDS011;8723;51.502;6.918;2023-08-12T00:28:03;16.83;;;15.10;;
17214;SDS011;8723;51.502;6.918;2023-08-12T00:30:30;17.55;;;15.65;;
17214;SDS011;8723;51.502;6.918;2023-08-12T00:32:58;19.13;;;17.10;;
17214;SDS011;8723;51.502;6.918;2023-08-12T00:35:25;19.95;;;17.50;;
17214;SDS011;8723;51.502;6.918;2023-08-12T00:37:52;19.67;;;17.60;;
17214;SDS011;8723;51.502;6.918;2023-08-12T00:40:19;19.87;;;17.70;;
17214;SDS011;8723;51.502;6.918;2023-08-12T00:42:45;20.20;;;16.88;;
17214;SDS011;8723;51.502;6.918;2023-08-12T00:45:12;20.48;;;18.38;;
17214;SDS011;8723;51.502;6.918;2023-08-12T00:47:39;20.30;;;18.23;;
17214;SDS011;8723;51.502;6.918;2023-08-12T00:50:09;20.17;;;17.77;;
17214;SDS011;8723;51.502;6.918;2023-08-12T00:52:38;20.83;;;17.30;;
17214;SDS011;8723;51.502;6.918;2023-08-12T00:55:06;19.50;;;17.17;;
17214;SDS011;8723;51.502;6.918;2023-08-12T00:57:33;18.83;;;17.02;;
17214;SDS011;8723;51.502;6.918;2023-08-12T01:00:00;19.83;;;17.92;;
17214;SDS011;8723;51.502;6.918;2023-08-12T01:02:28;19.53;;;17.33;;
17214;SDS011;8723;51.502;6.918;2023-08-12T01:04:55;20.15;;;17.77;;
17214;SDS011;8723;51.502;6.918;2023-08-12T01:07:23;20.08;;;18.00;;
17214;SDS011;8723;51.502;6.918;2023-08-12T01:09:50;21.70;;;18.88;;
17214;SDS011;8723;51.502;6.918;2023-08-12T01:12:18;22.63;;;18.57;;
17214;SDS011;8723;51.502;6.918;2023-08-12T01:14:51;19.73;;;17.75;;
17214;SDS011;8723;51.502;6.918;2023-08-12T01:17:25;20.47;;;17.50;;
17214;SDS011;8723;51.502;6.918;2023-08-12T01:19:54;20.15;;;17.95;;
17214;SDS011;8723;51.502;6.918;2023-08-12T01:22:23;23.90;;;20.13;;
17214;SDS011;8723;51.502;6.918;2023-08-12T01:24:54;25.23;;;20.00;;
17214;SDS011;8723;51.502;6.918;2023-08-12T01:27:21;21.13;;;18.93;;
17214;SDS011;8723;51.502;6.918;2023-08-12T01:29:49;21.30;;;19.10;;
17214;SDS011;8723;51.502;6.918;2023-08-12T01:32:20;22.15;;;19.98;;
17214;SDS011;8723;51.502;6.918;2023-08-12T01:34:50;21.10;;;18.88;;
17214;SDS011;8723;51.502;6.918;2023-08-12T01:37:24;19.85;;;18.00;;
17214;SDS011;8723;51.502;6.918;2023-08-12T01:39:55;22.05;;;19.48;;
17214;SDS011;8723;51.502;6.918;2023-08-12T01:42:27;21.20;;;19.10;;
17214;SDS011;8723;51.502;6.918;2023-08-12T01:44:57;21.88;;;19.55;;
17214;SDS011;8723;51.502;6.918;2023-08-12T01:47:26;21.27;;;19.10;;
17214;SDS011;8723;51.502;6.918;2023-08-12T01:49:56;22.57;;;20.23;;
17214;SDS011;8723;51.502;6.918;2023-08-12T01:52:25;23.05;;;20.73;;
17214;SDS011;8723;51.502;6.918;2023-08-12T01:54:57;24.13;;;21.52;;
17214;SDS011;8723;51.502;6.918;2023-08-12T01:57:26;25.00;;;20.38;;
17214;SDS011;8723;51.502;6.918;2023-08-12T01:59:55;23.48;;;19.98;;
17214;SDS011;8723;51.502;6.918;2023-08-12T02:02:25;22.48;;;19.10;;
17214;SDS011;8723;51.502;6.918;2023-08-12T02:04:54;23.27;;;19.50;;
17214;SDS011;8723;51.502;6.918;2023-08-12T02:07:21;19.98;;;17.30;;
17214;SDS011;8723;51.502;6.918;2023-08-12T02:09:51;18.60;;;16.70;;
17214;SDS011;8723;51.502;6.918;2023-08-12T02:12:19;20.70;;;17.13;;
17214;SDS011;8723;51.502;6.918;2023-08-12T02:14:46;18.75;;;16.52;;
17214;SDS011;8723;51.502;6.918;2023-08-12T02:17:16;17.98;;;15.90;;
17214;SDS011;8723;51.502;6.918;2023-08-12T02:19:45;20.13;;;16.20;;
17214;SDS011;8723;51.502;6.918;2023-08-12T02:22:13;18.88;;;16.35;;
17214;SDS011;8723;51.502;6.918;2023-08-12T02:24:42;19.33;;;16.00;;
17214;SDS011;8723;51.502;6.918;2023-08-12T02:27:09;17.80;;;15.63;;
17214;SDS011;8723;51.502;6.918;2023-08-12T02:29:38;18.85;;;16.40;;
17214;SDS011;8723;51.502;6.918;2023-08-12T02:32:08;19.58;;;15.93;;
17214;SDS011;8723;51.502;6.918;2023-08-12T02:34:35;19.58;;;15.95;;
17214;SDS011;8723;51.502;6.918;2023-08-12T02:37:02;17.75;;;15.95;;
17214;SDS011;8723;51.502;6.918;2023-08-12T02:39:29;21.70;;;16.25;;
17214;SDS011;8723;51.502;6.918;2023-08-12T02:41:56;19.02;;;16.25;;
17214;SDS011;8723;51.502;6.918;2023-08-12T02:44:23;17.92;;;16.08;;
17214;SDS011;8723;51.502;6.918;2023-08-12T02:46:51;18.52;;;16.55;;
17214;SDS011;8723;51.502;6.918;2023-08-12T02:49:18;18.00;;;16.10;;
17214;SDS011;8723;51.502;6.918;2023-08-12T02:51:44;18.83;;;16.83;;
17214;SDS011;8723;51.502;6.918;2023-08-12T02:54:11;17.85;;;15.85;;
17214;SDS011;8723;51.502;6.918;2023-08-12T02:56:38;19.77;;;16.77;;
17214;SDS011;8723;51.502;6.918;2023-08-12T02:59:05;20.58;;;17.13;;
17214;SDS011;8723;51.502;6.918;2023-08-12T03:01:32;18.95;;;16.95;;
17214;SDS011;8723;51.502;6.918;2023-08-12T03:04:04;20.33;;;17.73;;
17214;SDS011;8723;51.502;6.918;2023-08-12T03:06:34;18.58;;;16.55;;
17214;SDS011;8723;51.502;6.918;2023-08-12T03:09:04;18.27;;;16.45;;
17214;SDS011;8723;51.502;6.918;2023-08-12T03:11:34;20.63;;;17.30;;
17214;SDS011;8723;51.502;6.918;2023-08-12T03:14:03;22.15;;;16.90;;
17214;SDS011;8723;51.502;6.918;2023-08-12T03:16:30;19.65;;;17.55;;
17214;SDS011;8723;51.502;6.918;2023-08-12T03:18:57;19.53;;;16.83;;
17214;SDS011;8723;51.502;6.918;2023-08-12T03:21:25;19.23;;;17.02;;
17214;SDS011;8723;51.502;6.918;2023-08-12T03:23:51;18.33;;;16.48;;
17214;SDS011;8723;51.502;6.918;2023-08-12T03:26:18;18.05;;;16.25;;
17214;SDS011;8723;51.502;6.918;2023-08-12T03:28:45;20.23;;;16.67;;
17214;SDS011;8723;51.502;6.918;2023-08-12T03:31:12;18.13;;;16.15;;
17214;SDS011;8723;51.502;6.918;2023-08-12T03:33:39;18.57;;;16.30;;
17214;SDS011;8723;51.502;6.918;2023-08-12T03:36:05;18.15;;;16.40;;
17214;SDS011;8723;51.502;6.918;2023-08-12T03:38:34;17.45;;;15.60;;
17214;SDS011;8723;51.502;6.918;2023-08-12T03:41:01;18.02;;;15.80;;
17214;SDS011;8723;51.502;6.918;2023-08-12T03:43:27;16.85;;;15.10;;
17214;SDS011;8723;51.502;6.918;2023-08-12T03:45:54;16.75;;;14.93;;
17214;SDS011;8723;51.502;6.918;2023-08-12T03:48:21;17.35;;;15.48;;
17214;SDS011;8723;51.502;6.918;2023-08-12T03:50:48;16.85;;;15.00;;
17214;SDS011;8723;51.502;6.918;2023-08-12T03:53:15;16.63;;;14.93;;
17214;SDS011;8723;51.502;6.918;2023-08-12T03:55:43;17.57;;;15.70;;
17214;SDS011;8723;51.502;6.918;2023-08-12T03:58:10;16.10;;;14.40;;
17214;SDS011;8723;51.502;6.918;2023-08-12T04:00:40;16.58;;;14.95;;
17214;SDS011;8723;51.502;6.918;2023-08-12T04:03:07;17.88;;;15.60;;
17214;SDS011;8723;51.502;6.918;2023-08-12T04:05:34;16.95;;;15.20;;
17214;SDS011;8723;51.502;6.918;2023-08-12T04:08:01;16.65;;;14.68;;
17214;SDS011;8723;51.502;6.918;2023-08-12T04:10:28;19.05;;;15.10;;
17214;SDS011;8723;51.502;6.918;2023-08-12T04:12:57;18.65;;;15.15;;
17214;SDS011;8723;51.502;6.918;2023-08-12T04:15:24;16.60;;;14.90;;
17214;SDS011;8723;51.502;6.918;2023-08-12T04:17:50;19.52;;;14.80;;
17214;SDS011;8723;51.502;6.918;2023-08-12T04:20:17;17.02;;;15.32;;
17214;SDS011;8723;51.502;6.918;2023-08-12T04:22:44;17.35;;;14.82;;
17214;SDS011;8723;51.502;6.918;2023-08-12T04:25:11;18.35;;;15.38;;
17214;SDS011;8723;51.502;6.918;2023-08-12T04:27:37;17.05;;;15.25;;
17214;SDS011;8723;51.502;6.918;2023-08-12T04:30:06;18.15;;;15.63;;
17214;SDS011;8723;51.502;6.918;2023-08-12T04:32:34;21.73;;;15.13;;
17214;SDS011;8723;51.502;6.918;2023-08-12T04:35:00;16.58;;;14.90;;
17214;SDS011;8723;51.502;6.918;2023-08-12T04:37:28;17.27;;;15.48;;
17214;SDS011;8723;51.502;6.918;2023-08-12T04:39:57;17.55;;;14.95;;
17214;SDS011;8723;51.502;6.918;2023-08-12T04:42:24;19.00;;;14.73;;
17214;SDS011;8723;51.502;6.918;2023-08-12T04:44:50;17.73;;;15.38;;
17214;SDS011;8723;51.502;6.918;2023-08-12T04:47:19;19.70;;;15.50;;
17214;SDS011;8723;51.502;6.918;2023-08-12T04:49:45;17.77;;;15.88;;
17214;SDS011;8723;51.502;6.918;2023-08-12T04:52:12;18.73;;;15.02;;
17214;SDS011;8723;51.502;6.918;2023-08-12T04:54:39;21.83;;;15.80;;
17214;SDS011;8723;51.502;6.918;2023-08-12T04:57:06;16.23;;;14.35;;
17214;SDS011;8723;51.502;6.918;2023-08-12T04:59:33;17.92;;;14.10;;
17214;SDS011;8723;51.502;6.918;2023-08-12T05:02:00;17.13;;;15.13;;
17214;SDS011;8723;51.502;6.918;2023-08-12T05:04:28;16.42;;;14.32;;
17214;SDS011;8723;51.502;6.918;2023-08-12T05:06:55;15.95;;;14.25;;
17214;SDS011;8723;51.502;6.918;2023-08-12T05:09:22;14.48;;;13.15;;
17214;SDS011;8723;51.502;6.918;2023-08-12T05:11:48;15.55;;;13.85;;
17214;SDS011;8723;51.502;6.918;2023-08-12T05:14:15;15.45;;;13.82;;
17214;SDS011;8723;51.502;6.918;2023-08-12T05:16:42;15.10;;;13.32;;
17214;SDS011;8723;51.502;6.918;2023-08-12T05:19:09;14.65;;;13.25;;
17214;SDS011;8723;51.502;6.918;2023-08-12T05:21:37;14.17;;;12.70;;
17214;SDS011;8723;51.502;6.918;2023-08-12T05:24:04;16.40;;;13.13;;
17214;SDS011;8723;51.502;6.918;2023-08-12T05:26:32;14.90;;;13.30;;
17214;SDS011;8723;51.502;6.918;2023-08-12T05:28:59;14.37;;;12.87;;
17214;SDS011;8723;51.502;6.918;2023-08-12T05:31:26;14.18;;;12.65;;
17214;SDS011;8723;51.502;6.918;2023-08-12T05:33:53;14.95;;;12.85;;
17214;SDS011;8723;51.502;6.918;2023-08-12T05:36:19;14.48;;;12.57;;
17214;SDS011;8723;51.502;6.918;2023-08-12T05:38:47;14.13;;;12.63;;
17214;SDS011;8723;51.502;6.918;2023-08-12T05:41:14;13.77;;;12.38;;
17214;SDS011;8723;51.502;6.918;2023-08-12T05:43:41;13.43;;;12.10;;
17214;SDS011;8723;51.502;6.918;2023-08-12T05:46:08;14.30;;;12.98;;
17214;SDS011;8723;51.502;6.918;2023-08-12T05:48:34;16.17;;;12.73;;
17214;SDS011;8723;51.502;6.918;2023-08-12T05:51:01;15.32;;;12.20;;
17214;SDS011;8723;51.502;6.918;2023-08-12T05:53:28;13.80;;;12.43;;
17214;SDS011;8723;51.502;6.918;2023-08-12T05:55:56;15.45;;;12.70;;
17214;SDS011;8723;51.502;6.918;2023-08-12T05:58:23;14.18;;;12.63;;
17214;SDS011;8723;51.502;6.918;2023-08-12T06:00:50;13.00;;;11.70;;
17214;SDS011;8723;51.502;6.918;2023-08-12T06:03:17;14.27;;;12.50;;
17214;SDS011;8723;51.502;6.918;2023-08-12T06:05:44;12.55;;;11.35;;
17214;SDS011;8723;51.502;6.918;2023-08-12T06:08:12;13.63;;;12.30;;
17214;SDS011;8723;51.502;6.918;2023-08-12T06:10:39;11.73;;;10.20;;
17214;SDS011;8723;51.502;6.918;2023-08-12T06:13:07;12.45;;;11.15;;
17214;SDS011;8723;51.502;6.918;2023-08-12T06:15:34;12.48;;;11.18;;
17214;SDS011;8723;51.502;6.918;2023-08-12T06:18:01;12.30;;;10.63;;
17214;SDS011;8723;51.502;6.918;2023-08-12T06:20:28;13.50;;;11.60;;
17214;SDS011;8723;51.502;6.918;2023-08-12T06:22:55;14.88;;;11.65;;
17214;SDS011;8723;51.502;6.918;2023-08-12T06:25:22;10.90;;;9.55;;
17214;SDS011;8723;51.502;6.918;2023-08-12T06:27:49;12.23;;;9.85;;
17214;SDS011;8723;51.502;6.918;2023-08-12T06:30:17;10.15;;;8.73;;
17214;SDS011;8723;51.502;6.918;2023-08-12T06:32:44;7.95;;;7.18;;
17214;SDS011;8723;51.502;6.918;2023-08-12T06:35:11;9.82;;;8.90;;
17214;SDS011;8723;51.502;6.918;2023-08-12T06:37:37;9.32;;;7.70;;
17214;SDS011;8723;51.502;6.918;2023-08-12T06:40:05;10.25;;;9.20;;
17214;SDS011;8723;51.502;6.918;2023-08-12T06:42:32;9.65;;;7.70;;
17214;SDS011;8723;51.502;6.918;2023-08-12T06:44:59;11.88;;;9.18;;
17214;SDS011;8723;51.502;6.918;2023-08-12T06:47:30;10.38;;;8.75;;
17214;SDS011;8723;51.502;6.918;2023-08-12T06:49:57;8.88;;;7.40;;
17214;SDS011;8723;51.502;6.918;2023-08-12T06:52:24;9.10;;;7.33;;
17214;SDS011;8723;51.502;6.918;2023-08-12T06:54:50;6.47;;;5.88;;
17214;SDS011;8723;51.502;6.918;2023-08-12T06:57:17;10.07;;;8.50;;
17214;SDS011;8723;51.502;6.918;2023-08-12T06:59:44;9.05;;;8.15;;
17214;SDS011;8723;51.502;6.918;2023-08-12T07:02:11;8.80;;;7.93;;
17214;SDS011;8723;51.502;6.918;2023-08-12T07:04:39;8.05;;;7.20;;
17214;SDS011;8723;51.502;6.918;2023-08-12T07:07:06;7.95;;;6.57;;
17214;SDS011;8723;51.502;6.918;2023-08-12T07:09:33;8.40;;;7.60;;
17214;SDS011;8723;51.502;6.918;2023-08-12T07:11:59;7.97;;;7.13;;
17214;SDS011;8723;51.502;6.918;2023-08-12T07:14:27;7.32;;;6.63;;
17214;SDS011;8723;51.502;6.918;2023-08-12T07:16:54;7.00;;;6.40;;
17214;SDS011;8723;51.502;6.918;2023-08-12T07:19:21;7.27;;;6.63;;
17214;SDS011;8723;51.502;6.918;2023-08-12T07:21:49;6.93;;;6.30;;
17214;SDS011;8723;51.502;6.918;2023-08-12T07:24:16;7.70;;;6.28;;
17214;SDS011;8723;51.502;6.918;2023-08-12T07:26:43;7.40;;;6.70;;
17214;SDS011;8723;51.502;6.918;2023-08-12T07:29:10;6.45;;;5.95;;
17214;SDS011;8723;51.502;6.918;2023-08-12T07:31:37;7.03;;;6.45;;
17214;SDS011;8723;51.502;6.918;2023-08-12T07:34:03;6.22;;;5.72;;
17214;SDS011;8723;51.502;6.918;2023-08-12T07:36:31;5.78;;;5.22;;
17214;SDS011;8723;51.502;6.918;2023-08-12T07:38:59;6.60;;;6.10;;
17214;SDS011;8723;51.502;6.918;2023-08-12T07:41:26;6.70;;;6.05;;
17214;SDS011;8723;51.502;6.918;2023-08-12T07:43:53;6.38;;;5.78;;
17214;SDS011;8723;51.502;6.918;2023-08-12T07:46:20;6.28;;;5.78;;
17214;SDS011;8723;51.502;6.918;2023-08-12T07:48:46;6.75;;;5.97;;
17214;SDS011;8723;51.502;6.918;2023-08-12T07:51:13;5.75;;;5.30;;
17214;SDS011;8723;51.502;6.918;2023-08-12T07:53:40;6.95;;;6.38;;
17214;SDS011;8723;51.502;6.918;2023-08-12T07:56:08;6.60;;;6.10;;
17214;SDS011;8723;51.502;6.918;2023-08-12T07:58:35;5.60;;;5.10;;
17214;SDS011;8723;51.502;6.918;2023-08-12T08:01:02;5.45;;;5.15;;
17214;SDS011;8723;51.502;6.918;2023-08-12T08:03:29;7.07;;;6.47;;
17214;SDS011;8723;51.502;6.918;2023-08-12T08:05:56;6.75;;;6.22;;
17214;SDS011;8723;51.502;6.918;2023-08-12T08:08:23;6.55;;;5.95;;
17214;SDS011;8723;51.502;6.918;2023-08-12T08:10:50;5.60;;;5.20;;
17214;SDS011;8723;51.502;6.918;2023-08-12T08:13:18;6.50;;;6.00;;
17214;SDS011;8723;51.502;6.918;2023-08-12T08:15:45;6.05;;;5.53;;
17214;SDS011;8723;51.502;6.918;2023-08-12T08:18:12;6.80;;;6.20;;
17214;SDS011;8723;51.502;6.918;2023-08-12T08:20:39;5.75;;;5.25;;
17214;SDS011;8723;51.502;6.918;2023-08-12T08:23:07;5.90;;;5.40;;
17214;SDS011;8723;51.502;6.918;2023-08-12T08:25:34;5.72;;;5.32;;
17214;SDS011;8723;51.502;6.918;2023-08-12T08:28:01;5.70;;;5.20;;
17214;SDS011;8723;51.502;6.918;2023-08-12T08:30:29;5.95;;;5.45;;
17214;SDS011;8723;51.502;6.918;2023-08-12T08:32:56;5.93;;;5.43;;
17214;SDS011;8723;51.502;6.918;2023-08-12T08:35:23;5.55;;;5.15;;
17214;SDS011;8723;51.502;6.918;2023-08-12T08:37:50;5.47;;;4.97;;
17214;SDS011;8723;51.502;6.918;2023-08-12T08:40:16;5.40;;;4.90;;
17214;SDS011;8723;51.502;6.918;2023-08-12T08:42:43;6.10;;;5.50;;
17214;SDS011;8723;51.502;6.918;2023-08-12T08:45:13;5.30;;;4.88;;
17214;SDS011;8723;51.502;6.918;2023-08-12T08:47:41;5.40;;;4.90;;
17214;SDS011;8723;51.502;6.918;2023-08-12T08:50:09;5.60;;;5.20;;
17214;SDS011;8723;51.502;6.918;2023-08-12T08:52:37;4.93;;;4.53;;
17214;SDS011;8723;51.502;6.918;2023-08-12T08:55:04;6.05;;;5.45;;
17214;SDS011;8723;51.502;6.918;2023-08-12T08:57:31;5.63;;;4.90;;
17214;SDS011;8723;51.502;6.918;2023-08-12T08:59:58;5.68;;;4.97;;
17214;SDS011;8723;51.502;6.918;2023-08-12T09:02:25;5.38;;;4.88;;
17214;SDS011;8723;51.502;6.918;2023-08-12T09:04:54;4.65;;;4.35;;
17214;SDS011;8723;51.502;6.918;2023-08-12T09:07:21;4.90;;;4.55;;
17214;SDS011;8723;51.502;6.918;2023-08-12T09:09:49;4.97;;;4.45;;
17214;SDS011;8723;51.502;6.918;2023-08-12T09:12:18;4.82;;;4.43;;
17214;SDS011;8723;51.502;6.918;2023-08-12T09:14:46;4.88;;;4.47;;
17214;SDS011;8723;51.502;6.918;2023-08-12T09:17:13;4.70;;;4.30;;
17214;SDS011;8723;51.502;6.918;2023-08-12T09:19:41;4.20;;;3.88;;
17214;SDS011;8723;51.502;6.918;2023-08-12T09:22:09;4.93;;;4.53;;
17214;SDS011;8723;51.502;6.918;2023-08-12T09:24:35;4.65;;;4.25;;
17214;SDS011;8723;51.502;6.918;2023-08-12T09:27:02;4.90;;;4.50;;
17214;SDS011;8723;51.502;6.918;2023-08-12T09:29:30;4.40;;;3.95;;
17214;SDS011;8723;51.502;6.918;2023-08-12T09:32:05;5.00;;;4.50;;
17214;SDS011;8723;51.502;6.918;2023-08-12T09:34:33;4.57;;;4.20;;
17214;SDS011;8723;51.502;6.918;2023-08-12T09:37:01;4.10;;;3.80;;
17214;SDS011;8723;51.502;6.918;2023-08-12T09:39:29;4.05;;;3.75;;
17214;SDS011;8723;51.502;6.918;2023-08-12T09:41:56;4.85;;;3.70;;
17214;SDS011;8723;51.502;6.918;2023-08-12T09:44:24;3.97;;;3.60;;
17214;SDS011;8723;51.502;6.918;2023-08-12T09:46:56;4.43;;;4.03;;
17214;SDS011;8723;51.502;6.918;2023-08-12T09:49:23;4.18;;;3.80;;
17214;SDS011;8723;51.502;6.918;2023-08-12T09:51:51;4.28;;;3.88;;
17214;SDS011;8723;51.502;6.918;2023-08-12T09:54:18;4.25;;;3.92;;
17214;SDS011;8723;51.502;6.918;2023-08-12T09:56:47;4.50;;;4.10;;
17214;SDS011;8723;51.502;6.918;2023-08-12T09:59:16;4.72;;;4.15;;
17214;SDS011;8723;51.502;6.918;2023-08-12T10:01:46;4.47;;;3.83;;
17214;SDS011;8723;51.502;6.918;2023-08-12T10:04:15;4.50;;;4.10;;
17214;SDS011;8723;51.502;6.918;2023-08-12T10:06:44;4.40;;;4.00;;
17214;SDS011;8723;51.502;6.918;2023-08-12T10:09:12;4.50;;;3.93;;
17214;SDS011;8723;51.502;6.918;2023-08-12T10:11:41;4.55;;;3.80;;
17214;SDS011;8723;51.502;6.918;2023-08-12T10:14:10;4.07;;;3.78;;
17214;SDS011;8723;51.502;6.918;2023-08-12T10:16:38;3.70;;;3.40;;
17214;SDS011;8723;51.502;6.918;2023-08-12T10:19:10;3.63;;;3.33;;
17214;SDS011;8723;51.502;6.918;2023-08-12T10:21:38;4.10;;;3.80;;
17214;SDS011;8723;51.502;6.918;2023-08-12T10:24:05;3.57;;;3.27;;
17214;SDS011;8723;51.502;6.918;2023-08-12T10:26:34;4.20;;;3.70;;
17214;SDS011;8723;51.502;6.918;2023-08-12T10:29:01;3.80;;;3.50;;
17214;SDS011;8723;51.502;6.918;2023-08-12T10:31:30;4.20;;;3.90;;
17214;SDS011;8723;51.502;6.918;2023-08-12T10:33:57;4.70;;;4.37;;
17214;SDS011;8723;51.502;6.918;2023-08-12T10:36:25;5.03;;;4.63;;
17214;SDS011;8723;51.502;6.918;2023-08-12T10:38:53;5.20;;;4.80;;
17214;SDS011;8723;51.502;6.918;2023-08-12T10:41:20;6.13;;;5.63;;
17214;SDS011;8723;51.502;6.918;2023-08-12T10:43:48;4.65;;;4.35;;
17214;SDS011;8723;51.502;6.918;2023-08-12T10:46:22;5.40;;;4.93;;
17214;SDS011;8723;51.502;6.918;2023-08-12T10:49:03;4.10;;;3.80;;
17214;SDS011;8723;51.502;6.918;2023-08-12T10:51:44;4.63;;;4.32;;
17214;SDS011;8723;51.502;6.918;2023-08-12T10:54:20;4.55;;;4.15;;
17214;SDS011;8723;51.502;6.918;2023-08-12T10:57:03;4.05;;;3.75;;
17214;SDS011;8723;51.502;6.918;2023-08-12T10:59:49;3.40;;;3.10;;
17214;SDS011;8723;51.502;6.918;2023-08-12T11:02:21;3.70;;;3.40;;
17214;SDS011;8723;51.502;6.918;2023-08-12T11:04:56;3.83;;;3.53;;
17214;SDS011;8723;51.502;6.918;2023-08-12T11:07:28;3.65;;;2.90;;
17214;SDS011;8723;51.502;6.918;2023-08-12T11:09:58;3.05;;;2.75;;
17214;SDS011;8723;51.502;6.918;2023-08-12T11:12:29;3.00;;;2.75;;
17214;SDS011;8723;51.502;6.918;2023-08-12T11:14:57;3.15;;;2.90;;
17214;SDS011;8723;51.502;6.918;2023-08-12T11:17:35;2.70;;;2.50;;
17214;SDS011;8723;51.502;6.918;2023-08-12T11:20:05;2.38;;;2.17;;
17214;SDS011;8723;51.502;6.918;2023-08-12T11:22:36;2.10;;;2.00;;
17214;SDS011;8723;51.502;6.918;2023-08-12T11:25:04;2.53;;;2.33;;
17214;SDS011;8723;51.502;6.918;2023-08-12T11:27:40;2.10;;;2.00;;
17214;SDS011;8723;51.502;6.918;2023-08-12T11:30:08;3.08;;;2.28;;
17214;SDS011;8723;51.502;6.918;2023-08-12T11:32:35;2.45;;;2.35;;
17214;SDS011;8723;51.502;6.918;2023-08-12T11:35:05;2.40;;;2.20;;
17214;SDS011;8723;51.502;6.918;2023-08-12T11:37:34;2.63;;;2.50;;
17214;SDS011;8723;51.502;6.918;2023-08-12T11:40:01;2.63;;;2.42;;
17214;SDS011;8723;51.502;6.918;2023-08-12T11:42:29;2.58;;;2.38;;
17214;SDS011;8723;51.502;6.918;2023-08-12T11:44:56;2.80;;;2.25;;
17214;SDS011;8723;51.502;6.918;2023-08-12T11:47:22;3.90;;;2.45;;
17214;SDS011;8723;51.502;6.918;2023-08-12T11:49:49;9.15;;;3.03;;
17214;SDS011;8723;51.502;6.918;2023-08-12T12:01:06;2.72;;;2.47;;
17214;SDS011;8723;51.502;6.918;2023-08-12T12:03:33;4.87;;;3.50;;
17214;SDS011;8723;51.502;6.918;2023-08-12T12:08:30;4.32;;;3.92;;
17214;SDS011;8723;51.502;6.918;2023-08-12T12:11:02;4.40;;;4.10;;
17214;SDS011;8723;51.502;6.918;2023-08-12T12:13:30;5.78;;;4.70;;
17214;SDS011;8723;51.502;6.918;2023-08-12T12:15:57;5.30;;;4.80;;
17214;SDS011;8723;51.502;6.918;2023-08-12T12:18:25;5.30;;;4.80;;
17214;SDS011;8723;51.502;6.918;2023-08-12T12:20:56;5.05;;;4.65;;
17214;SDS011;8723;51.502;6.918;2023-08-12T12:23:26;4.87;;;4.43;;
17214;SDS011;8723;51.502;6.918;2023-08-12T12:25:56;6.82;;;4.57;;
17214;SDS011;8723;51.502;6.918;2023-08-12T12:28:24;4.50;;;4.10;;
17214;SDS011;8723;51.502;6.918;2023-08-12T12:30:51;5.47;;;4.93;;
17214;SDS011;8723;51.502;6.918;2023-08-12T12:33:17;6.22;;;5.18;;
17214;SDS011;8723;51.502;6.918;2023-08-12T12:35:46;6.13;;;5.63;;
17214;SDS011;8723;51.502;6.918;2023-08-12T12:38:12;6.57;;;6.07;;
17214;SDS011;8723;51.502;6.918;2023-08-12T12:40:39;5.68;;;5.28;;
17214;SDS011;8723;51.502;6.918;2023-08-12T12:43:06;6.25;;;5.78;;
17214;SDS011;8723;51.502;6.918;2023-08-12T12:45:33;7.38;;;6.88;;
17214;SDS011;8723;51.502;6.918;2023-08-12T12:48:00;6.50;;;6.00;;
17214;SDS011;8723;51.502;6.918;2023-08-12T12:50:26;7.03;;;6.47;;
17214;SDS011;8723;51.502;6.918;2023-08-12T12:52:54;6.90;;;6.40;;
17214;SDS011;8723;51.502;6.918;2023-08-12T12:55:21;6.65;;;6.15;;
17214;SDS011;8723;51.502;6.918;2023-08-12T12:57:49;7.55;;;6.95;;
17214;SDS011;8723;51.502;6.918;2023-08-12T13:00:15;7.10;;;6.60;;
17214;SDS011;8723;51.502;6.918;2023-08-12T13:02:42;8.20;;;7.50;;
17214;SDS011;8723;51.502;6.918;2023-08-12T13:05:09;9.25;;;8.38;;
17214;SDS011;8723;51.502;6.918;2023-08-12T13:07:36;9.95;;;8.98;;
17214;SDS011;8723;51.502;6.918;2023-08-12T13:10:04;9.90;;;9.10;;
17214;SDS011;8723;51.502;6.918;2023-08-12T13:12:32;11.93;;;9.77;;
17214;SDS011;8723;51.502;6.918;2023-08-12T13:14:59;10.73;;;9.73;;
17214;SDS011;8723;51.502;6.918;2023-08-12T13:17:25;10.10;;;9.20;;
17214;SDS011;8723;51.502;6.918;2023-08-12T13:19:52;10.18;;;9.27;;
17214;SDS011;8723;51.502;6.918;2023-08-12T13:22:19;11.73;;;10.60;;
17214;SDS011;8723;51.502;6.918;2023-08-12T13:24:46;10.80;;;9.77;;
17214;SDS011;8723;51.502;6.918;2023-08-12T13:27:14;10.57;;;9.67;;
17214;SDS011;8723;51.502;6.918;2023-08-12T13:29:42;11.23;;;10.33;;
17214;SDS011;8723;51.502;6.918;2023-08-12T13:32:09;11.45;;;10.50;;
17214;SDS011;8723;51.502;6.918;2023-08-12T13:34:36;12.63;;;11.43;;
17214;SDS011;8723;51.502;6.918;2023-08-12T13:37:03;12.73;;;11.63;;
17214;SDS011;8723;51.502;6.918;2023-08-12T13:39:30;42.58;;;14.40;;
17214;SDS011;8723;51.502;6.918;2023-08-12T13:41:57;19.67;;;14.75;;
17214;SDS011;8723;51.502;6.918;2023-08-12T13:44:25;32.08;;;19.33;;
17214;SDS011;8723;51.502;6.918;2023-08-12T13:46:52;9.30;;;8.40;;
17214;SDS011;8723;51.502;6.918;2023-08-12T13:49:19;7.97;;;7.10;;
17214;SDS011;8723;51.502;6.918;2023-08-12T13:51:46;7.80;;;7.15;;
17214;SDS011;8723;51.502;6.918;2023-08-12T13:54:12;6.90;;;6.35;;
17214;SDS011;8723;51.502;6.918;2023-08-12T13:56:39;6.70;;;6.10;;
17214;SDS011;8723;51.502;6.918;2023-08-12T13:59:06;6.82;;;6.32;;
17214;SDS011;8723;51.502;6.918;2023-08-12T14:01:34;6.93;;;5.85;;
17214;SDS011;8723;51.502;6.918;2023-08-12T14:04:01;6.97;;;6.28;;
17214;SDS011;8723;51.502;6.918;2023-08-12T14:06:29;6.15;;;5.65;;
17214;SDS011;8723;51.502;6.918;2023-08-12T14:08:55;6.30;;;5.70;;
17214;SDS011;8723;51.502;6.918;2023-08-12T14:11:22;6.35;;;5.75;;
17214;SDS011;8723;51.502;6.918;2023-08-12T14:13:49;6.78;;;6.28;;
17214;SDS011;8723;51.502;6.918;2023-08-12T14:16:16;7.33;;;6.70;;
17214;SDS011;8723;51.502;6.918;2023-08-12T14:18:44;7.43;;;6.82;;
17214;SDS011;8723;51.502;6.918;2023-08-12T14:21:11;8.00;;;7.45;;
17214;SDS011;8723;51.502;6.918;2023-08-12T14:23:37;7.05;;;6.38;;
17214;SDS011;8723;51.502;6.918;2023-08-12T14:26:04;7.28;;;6.50;;
17214;SDS011;8723;51.502;6.918;2023-08-12T14:28:31;6.65;;;6.00;;
17214;SDS011;8723;51.502;6.918;2023-08-12T14:30:58;6.35;;;5.70;;
17214;SDS011;8723;51.502;6.918;2023-08-12T14:33:24;5.63;;;5.13;;
17214;SDS011;8723;51.502;6.918;2023-08-12T14:35:53;5.17;;;4.70;;
17214;SDS011;8723;51.502;6.918;2023-08-12T14:38:20;5.25;;;4.68;;
17214;SDS011;8723;51.502;6.918;2023-08-12T14:40:47;5.78;;;4.30;;
17214;SDS011;8723;51.502;6.918;2023-08-12T14:43:14;4.82;;;4.10;;
17214;SDS011;8723;51.502;6.918;2023-08-12T14:45:41;4.93;;;4.20;;
17214;SDS011;8723;51.502;6.918;2023-08-12T14:48:10;4.25;;;3.95;;
17214;SDS011;8723;51.502;6.918;2023-08-12T14:50:37;4.80;;;4.40;;
17214;SDS011;8723;51.502;6.918;2023-08-12T14:53:05;5.35;;;3.85;;
17214;SDS011;8723;51.502;6.918;2023-08-12T14:55:31;4.53;;;3.72;;
17214;SDS011;8723;51.502;6.918;2023-08-12T14:57:58;3.70;;;3.35;;
17214;SDS011;8723;51.502;6.918;2023-08-12T15:00:25;5.20;;;3.40;;
17214;SDS011;8723;51.502;6.918;2023-08-12T15:02:52;3.33;;;3.00;;